Time;durP1;ratioP1;P1;durP2;ratioP2;P2;SDS_P1;SDS_P2;PMS_P1;PMS_P2;Temp;Humidity;BMP_temperature;BMP_pressure;BME280_temperature;BME280_humidity;BME280_pressure;Samples;Min_cycle;Max_cycle;Signal;HPM_P1;HPM_P2
2023/10/11 00:01:49;;;;;;;2.40;2.20;;;;;;;;;;5000985;28;58989;-79
2023/10/11 00:04:24;;;;;;;2.05;1.88;;;;;;;;;;5002608;28;58496;-73
2023/10/11 00:06:50;;;;;;;3.28;2.97;;;;;;;;;;5001171;28;59906;-74
2023/10/11 00:09:16;;;;;;;3.35;2.53;;;;;;;;;;5002717;28;59846;-77
2023/10/11 00:11:45;;;;;;;2.83;2.63;;;;;;;;;;4968784;28;58744;-80
2023/10/11 00:14:10;;;;;;;2.75;2.00;;;;;;;;;;5003567;28;58705;-76
2023/10/11 00:16:35;;;;;;;3.30;2.33;;;;;;;;;;5001653;28;58343;-76
2023/10/11 00:19:01;;;;;;;1.80;1.63;;;;;;;;;;5003541;28;59519;-73
2023/10/11 00:21:42;;;;;;;2.47;2.13;;;;;;;;;;5005974;28;59837;-77
2023/10/11 00:24:07;;;;;;;3.78;2.15;;;;;;;;;;4999407;28;58423;-78
2023/10/11 00:26:34;;;;;;;3.17;2.03;;;;;;;;;;5000733;28;60048;-77
2023/10/11 00:29:00;;;;;;;5.13;2.00;;;;;;;;;;4999642;28;59340;-76
2023/10/11 00:31:25;;;;;;;3.72;2.35;;;;;;;;;;5004001;28;58327;-78
2023/10/11 00:33:53;;;;;;;3.13;2.03;;;;;;;;;;5001711;28;58785;-76
2023/10/11 00:36:24;;;;;;;2.45;1.58;;;;;;;;;;5001750;28;58486;-76
2023/10/11 00:38:51;;;;;;;2.67;1.92;;;;;;;;;;4998783;28;58401;-81
2023/10/11 00:41:19;;;;;;;1.90;1.75;;;;;;;;;;5000983;28;58575;-78
2023/10/11 00:43:55;;;;;;;2.10;1.77;;;;;;;;;;5000895;28;58375;-75
2023/10/11 00:46:24;;;;;;;2.97;2.13;;;;;;;;;;5002379;28;58651;-76
2023/10/11 00:48:53;;;;;;;2.53;2.30;;;;;;;;;;5001191;28;58809;-74
2023/10/11 00:51:26;;;;;;;4.13;2.97;;;;;;;;;;5001604;28;58461;-76
2023/10/11 00:53:51;;;;;;;3.53;2.00;;;;;;;;;;5014104;28;59644;-76
2023/10/11 00:56:20;;;;;;;7.63;2.17;;;;;;;;;;5002327;28;58971;-79
2023/10/11 00:58:47;;;;;;;3.47;2.00;;;;;;;;;;5001533;28;58733;-74
2023/10/11 01:01:14;;;;;;;4.57;1.80;;;;;;;;;;5003169;28;59758;-74
2023/10/11 01:03:41;;;;;;;2.65;2.25;;;;;;;;;;5001429;28;58371;-77
2023/10/11 01:06:09;;;;;;;2.08;1.88;;;;;;;;;;5000337;28;59111;-80
2023/10/11 01:08:40;;;;;;;;;;;;;;;;;;4998590;28;59124;-78
2023/10/11 01:11:10;;;;;;;1.83;1.73;;;;;;;;;;4998624;28;58491;-74
2023/10/11 01:13:40;;;;;;;5.63;2.30;;;;;;;;;;4999190;28;58468;-77
2023/10/11 01:16:05;;;;;;;1.98;1.88;;;;;;;;;;5002130;28;58400;-77
2023/10/11 01:23:45;;;;;;;1.85;1.75;;;;;;;;;;4971960;28;59590;-79
2023/10/11 01:26:42;;;;;;;2.00;1.77;;;;;;;;;;4946913;28;58627;-80
2023/10/11 01:29:45;;;;;;;2.13;1.90;;;;;;;;;;4963210;28;58384;-80
2023/10/11 01:32:13;;;;;;;3.30;2.33;;;;;;;;;;4983319;28;58408;-76
2023/10/11 01:34:38;;;;;;;2.13;2.00;;;;;;;;;;4988992;28;58601;-76
2023/10/11 01:37:06;;;;;;;2.63;2.10;;;;;;;;;;4967159;28;58882;-74
2023/10/11 01:39:32;;;;;;;1.75;1.65;;;;;;;;;;4893628;28;58433;-71
2023/10/11 01:41:58;;;;;;;3.35;2.25;;;;;;;;;;4915374;28;60780;-71
2023/10/11 01:44:24;;;;;;;2.10;1.90;;;;;;;;;;4937823;28;58553;-70
2023/10/11 01:46:49;;;;;;;2.45;1.67;;;;;;;;;;4934687;28;59652;-72
2023/10/11 01:49:14;;;;;;;2.13;1.90;;;;;;;;;;4938619;28;58553;-73
2023/10/11 01:51:43;;;;;;;1.73;1.63;;;;;;;;;;4937262;28;58249;-70
2023/10/11 01:54:09;;;;;;;2.90;2.50;;;;;;;;;;4940362;28;59407;-73
2023/10/11 01:56:34;;;;;;;1.95;1.75;;;;;;;;;;4941464;28;58525;-78
2023/10/11 01:59:01;;;;;;;3.70;2.00;;;;;;;;;;4943026;28;58332;-77
2023/10/11 02:01:28;;;;;;;2.10;1.90;;;;;;;;;;4944435;28;59650;-78
2023/10/11 02:03:56;;;;;;;1.63;1.53;;;;;;;;;;4944663;28;58643;-78
2023/10/11 02:06:22;;;;;;;1.77;1.48;;;;;;;;;;4945801;28;58423;-78
2023/10/11 02:08:47;;;;;;;2.70;2.50;;;;;;;;;;4943687;28;58178;-79
2023/10/11 02:11:15;;;;;;;3.40;1.63;;;;;;;;;;4940941;28;58529;-80
2023/10/11 02:13:41;;;;;;;;;;;;;;;;;;4942490;28;58441;-79
2023/10/11 02:16:14;;;;;;;2.28;1.98;;;;;;;;;;4941461;28;59917;-81
2023/10/11 02:18:41;;;;;;;2.22;1.80;;;;;;;;;;4941723;28;58362;-82
2023/10/11 02:21:08;;;;;;;1.98;1.65;;;;;;;;;;4943243;28;58707;-81
2023/10/11 02:23:44;;;;;;;2.25;1.80;;;;;;;;;;4928358;28;62530;-82
2023/10/11 02:26:12;;;;;;;1.80;1.70;;;;;;;;;;4934943;28;57812;-81
2023/10/11 02:29:27;;;;;;;1.88;1.65;;;;;;;;;;4948127;28;58141;-81
2023/10/11 02:32:03;;;;;;;3.47;2.28;;;;;;;;;;4941649;28;58339;-82
2023/10/11 02:34:49;;;;;;;2.00;1.83;;;;;;;;;;4951196;28;58640;-81
2023/10/11 02:37:16;;;;;;;1.80;1.70;;;;;;;;;;4938997;28;58307;-81
2023/10/11 02:40:08;;;;;;;2.30;2.07;;;;;;;;;;4917108;28;58532;-82
2023/10/11 02:42:36;;;;;;;2.08;1.92;;;;;;;;;;4925585;28;60197;-82
2023/10/11 02:45:12;;;;;;;1.67;1.58;;;;;;;;;;4933282;28;58425;-81
2023/10/11 02:48:02;;;;;;;2.40;2.00;;;;;;;;;;4945406;28;57706;-81
2023/10/11 02:50:36;;;;;;;2.22;2.00;;;;;;;;;;4952353;28;58530;-81
2023/10/11 02:53:12;;;;;;;2.45;2.25;;;;;;;;;;4943879;28;58364;-80
2023/10/11 02:55:38;;;;;;;2.33;2.13;;;;;;;;;;4943830;28;58380;-79
2023/10/11 02:58:38;;;;;;;1.90;1.80;;;;;;;;;;4934357;28;58464;-78
2023/10/11 03:01:10;;;;;;;3.15;2.60;;;;;;;;;;4926943;28;58453;-80
2023/10/11 03:03:38;;;;;;;2.55;2.00;;;;;;;;;;4929273;28;58875;-79
2023/10/11 03:06:07;;;;;;;2.00;1.90;;;;;;;;;;4928577;28;58491;-79
2023/10/11 03:08:37;;;;;;;1.55;1.45;;;;;;;;;;4921466;28;58371;-79
2023/10/11 03:11:04;;;;;;;2.05;1.85;;;;;;;;;;4916346;28;60254;-78
2023/10/11 03:13:41;;;;;;;2.03;1.75;;;;;;;;;;4920301;28;59036;-79
2023/10/11 03:16:17;;;;;;;2.13;1.88;;;;;;;;;;4931486;28;58661;-80
2023/10/11 03:19:06;;;;;;;2.33;2.13;;;;;;;;;;4927500;28;58393;-79
2023/10/11 03:21:33;;;;;;;2.28;1.95;;;;;;;;;;4936001;28;58456;-80
2023/10/11 03:24:04;;;;;;;2.25;2.05;;;;;;;;;;4946956;28;58834;-78
2023/10/11 03:26:31;;;;;;;1.65;1.55;;;;;;;;;;4946941;28;58659;-79
2023/10/11 03:29:21;;;;;;;1.77;1.60;;;;;;;;;;4929151;28;58508;-79
2023/10/11 03:32:07;;;;;;;1.75;1.63;;;;;;;;;;4921155;28;58702;-78
2023/10/11 03:34:43;;;;;;;2.10;2.00;;;;;;;;;;4942740;28;58540;-79
2023/10/11 03:37:20;;;;;;;1.85;1.75;;;;;;;;;;4934595;28;58570;-80
2023/10/11 03:39:56;;;;;;;4.47;1.85;;;;;;;;;;4935943;28;58626;-80
2023/10/11 03:43:12;;;;;;;1.75;1.65;;;;;;;;;;4934222;28;58398;-79
2023/10/11 03:45:10;;;;;;;2.30;1.97;;;;;;;;;;4925933;28;58364;-79
2023/10/11 03:47:39;;;;;;;2.27;1.70;;;;;;;;;;4940145;28;59132;-80
2023/10/11 03:50:06;;;;;;;2.10;1.90;;;;;;;;;;4935162;28;58439;-79
2023/10/11 03:52:33;;;;;;;1.77;1.67;;;;;;;;;;4929643;28;58914;-80
2023/10/11 03:55:12;;;;;;;1.92;1.80;;;;;;;;;;4920163;28;58654;-78
2023/10/11 03:57:50;;;;;;;1.85;1.75;;;;;;;;;;4937766;28;58435;-79
2023/10/11 04:00:25;;;;;;;2.22;1.88;;;;;;;;;;4947811;28;59404;-80
2023/10/11 04:03:02;;;;;;;2.80;2.40;;;;;;;;;;4947781;28;58413;-81
2023/10/11 04:05:35;;;;;;;2.42;1.95;;;;;;;;;;4952412;28;58987;-81
2023/10/11 04:08:24;;;;;;;2.28;2.05;;;;;;;;;;4963947;28;58396;-81
2023/10/11 04:12:10;;;;;;;2.20;2.03;;;;;;;;;;4936834;28;57907;-81
2023/10/11 04:14:24;;;;;;;2.25;1.63;;;;;;;;;;4940268;28;58494;-81
2023/10/11 04:16:52;;;;;;;2.25;2.05;;;;;;;;;;4937783;28;58364;-81
2023/10/11 04:19:23;;;;;;;1.83;1.73;;;;;;;;;;4932549;28;58039;-81
2023/10/11 04:21:57;;;;;;;1.77;1.67;;;;;;;;;;4935912;28;58575;-81
2023/10/11 04:25:09;;;;;;;2.33;1.80;;;;;;;;;;4927382;28;58577;-81
2023/10/11 04:27:53;;;;;;;2.35;2.10;;;;;;;;;;4938135;28;58895;-81
2023/10/11 04:30:43;;;;;;;2.50;1.90;;;;;;;;;;4914360;28;58577;-82
2023/10/11 04:33:22;;;;;;;2.63;2.35;;;;;;;;;;4955856;28;57697;-81
2023/10/11 04:36:12;;;;;;;2.20;2.00;;;;;;;;;;4946403;28;58724;-80
2023/10/11 04:39:14;;;;;;;2.33;2.13;;;;;;;;;;4925962;28;62114;-81
2023/10/11 04:42:06;;;;;;;2.25;2.15;;;;;;;;;;4937026;28;58381;-80
2023/10/11 04:44:57;;;;;;;1.90;1.80;;;;;;;;;;4959468;28;62762;-82
2023/10/11 04:47:52;;;;;;;1.77;1.67;;;;;;;;;;4940566;28;58642;-82
2023/10/11 04:50:23;;;;;;;;;;;;;;;;;;4965016;28;58360;-82
2023/10/11 04:52:50;;;;;;;;;;;;;;;;;;4954736;28;58306;-81
2023/10/11 04:55:46;;;;;;;2.13;1.92;;;;;;;;;;4953336;28;58389;-81
2023/10/11 05:01:02;;;;;;;3.88;2.38;;;;;;;;;;4933019;28;59657;-82
2023/10/11 05:04:00;;;;;;;2.35;2.20;;;;;;;;;;4939212;28;58372;-79
2023/10/11 05:06:53;;;;;;;2.42;1.98;;;;;;;;;;4930587;28;58548;-79
2023/10/11 05:09:29;;;;;;;2.08;1.63;;;;;;;;;;4924750;28;58458;-78
2023/10/11 05:14:56;;;;;;;2.25;2.05;;;;;;;;;;4943407;28;58562;-78
2023/10/11 05:17:33;;;;;;;2.92;2.15;;;;;;;;;;4952829;28;58439;-79
2023/10/11 05:23:02;;;;;;;2.10;1.90;;;;;;;;;;4894128;28;58485;-79
2023/10/11 05:28:44;;;;;;;3.05;1.50;;;;;;;;;;4925028;28;58616;-80
2023/10/11 05:32:19;;;;;;;1.77;1.52;;;;;;;;;;4953134;28;58644;-79
2023/10/11 05:51:30;;;;;;;2.88;2.42;;;;;;;;;;4959838;28;58655;-78
2023/10/11 05:53:59;;;;;;;2.20;2.00;;;;;;;;;;4943611;28;58621;-79
2023/10/11 05:56:33;;;;;;;2.10;1.98;;;;;;;;;;4950157;28;58667;-78
2023/10/11 05:59:03;;;;;;;2.40;1.75;;;;;;;;;;4938321;28;58758;-79
2023/10/11 06:01:34;;;;;;;2.10;1.90;;;;;;;;;;4949197;28;58356;-79
2023/10/11 06:04:08;;;;;;;1.92;1.70;;;;;;;;;;4950898;28;58482;-79
2023/10/11 06:06:42;;;;;;;2.95;2.20;;;;;;;;;;4948632;28;58434;-79
2023/10/11 06:09:27;;;;;;;2.28;2.08;;;;;;;;;;4940913;28;58435;-80
2023/10/11 06:12:00;;;;;;;2.58;2.30;;;;;;;;;;4919304;28;63259;-79
2023/10/11 06:14:46;;;;;;;1.90;1.77;;;;;;;;;;4959253;28;63373;-81
2023/10/11 06:17:16;;;;;;;1.45;1.35;;;;;;;;;;4959654;28;59718;-79
2023/10/11 06:19:53;;;;;;;1.95;1.83;;;;;;;;;;4938254;28;59097;-79
2023/10/11 06:22:50;;;;;;;2.30;2.03;;;;;;;;;;4948993;28;58503;-81
2023/10/11 06:28:13;;;;;;;1.60;1.50;;;;;;;;;;4944499;28;58413;-81
2023/10/11 06:30:47;;;;;;;2.10;1.90;;;;;;;;;;4952104;28;58382;-81
2023/10/11 06:33:34;;;;;;;2.13;1.92;;;;;;;;;;4941110;28;58600;-82
2023/10/11 06:36:14;;;;;;;2.10;1.90;;;;;;;;;;4952356;28;58249;-82
2023/10/11 06:38:55;;;;;;;3.30;2.33;;;;;;;;;;4927854;28;58428;-77
2023/10/11 06:41:46;;;;;;;1.87;1.77;;;;;;;;;;4968461;28;59389;-81
2023/10/11 06:44:11;;;;;;;3.00;1.95;;;;;;;;;;4963508;28;58425;-76
2023/10/11 06:46:37;;;;;;;5.73;2.80;;;;;;;;;;4966876;28;58443;-76
2023/10/11 06:49:04;;;;;;;5.07;2.75;;;;;;;;;;4966925;28;58553;-77
2023/10/11 06:51:29;;;;;;;1.83;1.67;;;;;;;;;;4966022;28;58561;-77
2023/10/11 06:53:57;;;;;;;2.30;2.10;;;;;;;;;;4964660;28;58370;-76
2023/10/11 06:56:22;;;;;;;2.13;1.92;;;;;;;;;;4944604;28;59042;-76
2023/10/11 06:58:47;;;;;;;6.38;2.00;;;;;;;;;;4959166;28;58219;-77
2023/10/11 07:01:13;;;;;;;2.00;1.90;;;;;;;;;;4964550;28;59839;-75
2023/10/11 07:04:02;;;;;;;1.88;1.70;;;;;;;;;;4961264;28;58485;-78
2023/10/11 07:07:08;;;;;;;2.35;1.52;;;;;;;;;;4884286;28;58529;-79
2023/10/11 07:10:23;;;;;;;2.63;2.10;;;;;;;;;;4918495;28;59750;-78
2023/10/11 07:13:13;;;;;;;1.90;1.80;;;;;;;;;;4937914;28;58891;-78
2023/10/11 07:16:06;;;;;;;2.42;2.20;;;;;;;;;;4950739;28;59758;-78
2023/10/11 07:19:15;;;;;;;2.03;1.83;;;;;;;;;;4939125;28;58680;-78
2023/10/11 07:22:26;;;;;;;1.85;1.50;;;;;;;;;;4926790;28;58473;-79
2023/10/11 07:25:38;;;;;;;2.22;2.03;;;;;;;;;;4952242;28;59244;-78
2023/10/11 07:28:43;;;;;;;2.42;2.03;;;;;;;;;;4948965;28;58699;-78
2023/10/11 07:31:16;;;;;;;2.20;2.00;;;;;;;;;;4956752;28;58631;-80
2023/10/11 07:34:21;;;;;;;5.03;2.83;;;;;;;;;;4920967;28;58504;-78
2023/10/11 07:37:18;;;;;;;2.20;1.77;;;;;;;;;;4957643;28;58846;-78
2023/10/11 07:40:09;;;;;;;4.38;2.80;;;;;;;;;;4940480;28;58536;-79
2023/10/11 07:42:58;;;;;;;2.53;2.33;;;;;;;;;;4901425;28;58617;-79
2023/10/11 07:45:50;;;;;;;1.60;1.50;;;;;;;;;;4939524;28;59059;-79
2023/10/11 07:48:43;;;;;;;2.92;2.28;;;;;;;;;;4920358;28;58455;-78
2023/10/11 07:51:59;;;;;;;2.33;1.85;;;;;;;;;;4918939;28;58392;-78
2023/10/11 07:54:43;;;;;;;1.95;1.70;;;;;;;;;;4952868;28;58543;-78
2023/10/11 07:57:59;;;;;;;2.00;1.80;;;;;;;;;;4947290;28;58575;-78
2023/10/11 08:01:15;;;;;;;2.05;1.70;;;;;;;;;;4907604;28;59003;-78
2023/10/11 08:03:53;;;;;;;2.45;1.88;;;;;;;;;;4940479;28;58188;-78
2023/10/11 08:07:16;;;;;;;2.17;2.03;;;;;;;;;;4938742;28;58776;-79
2023/10/11 08:10:10;;;;;;;2.42;2.22;;;;;;;;;;4944153;28;58518;-79
2023/10/11 08:13:23;;;;;;;1.90;1.80;;;;;;;;;;4926272;28;58520;-78
2023/10/11 08:16:05;;;;;;;1.73;1.63;;;;;;;;;;4935719;28;58631;-78
2023/10/11 08:19:11;;;;;;;2.17;1.93;;;;;;;;;;4875366;28;58900;-78
2023/10/11 08:22:18;;;;;;;2.15;1.95;;;;;;;;;;4889160;28;58500;-78
2023/10/11 08:25:39;;;;;;;1.83;1.73;;;;;;;;;;4837113;28;58485;-78
2023/10/11 08:28:49;;;;;;;2.58;2.15;;;;;;;;;;4906048;28;58360;-78
2023/10/11 08:31:52;;;;;;;2.40;2.20;;;;;;;;;;4875896;28;58541;-80
2023/10/11 08:35:05;;;;;;;2.05;1.90;;;;;;;;;;4911149;28;58563;-80
2023/10/11 08:38:16;;;;;;;2.42;2.13;;;;;;;;;;4909061;28;58668;-79
2023/10/11 08:41:05;;;;;;;3.33;2.55;;;;;;;;;;4888024;28;58852;-79
2023/10/11 08:44:26;;;;;;;1.95;1.60;;;;;;;;;;4893090;28;58113;-79
2023/10/11 08:47:06;;;;;;;2.72;1.95;;;;;;;;;;4880770;28;58612;-80
2023/10/11 08:49:52;;;;;;;1.92;1.77;;;;;;;;;;4875471;28;58619;-79
2023/10/11 08:53:07;;;;;;;9.93;2.47;;;;;;;;;;4907744;28;58432;-80
2023/10/11 08:56:15;;;;;;;2.30;2.10;;;;;;;;;;4913025;28;58962;-79
2023/10/11 08:59:25;;;;;;;2.40;2.20;;;;;;;;;;4952216;28;58576;-80
2023/10/11 09:02:07;;;;;;;2.28;2.05;;;;;;;;;;4927757;28;58742;-80
2023/10/11 09:04:55;;;;;;;2.70;2.50;;;;;;;;;;4917627;28;58709;-80
2023/10/11 09:08:04;;;;;;;3.00;1.98;;;;;;;;;;4937361;28;58258;-80
2023/10/11 09:10:49;;;;;;;2.78;2.17;;;;;;;;;;4909767;28;59149;-81
2023/10/11 09:13:50;;;;;;;2.83;2.30;;;;;;;;;;4889645;28;59300;-80
2023/10/11 09:16:35;;;;;;;2.67;2.08;;;;;;;;;;4919511;28;58514;-79
2023/10/11 09:19:06;;;;;;;2.17;1.98;;;;;;;;;;4914127;28;58811;-80
2023/10/11 09:22:28;;;;;;;2.42;1.98;;;;;;;;;;4930622;28;58077;-80
2023/10/11 09:25:39;;;;;;;2.47;2.28;;;;;;;;;;4859276;28;58765;-81
2023/10/11 09:28:47;;;;;;;2.13;1.92;;;;;;;;;;4933043;28;58368;-80
2023/10/11 09:31:59;;;;;;;2.60;2.40;;;;;;;;;;4882165;28;58616;-80
2023/10/11 09:35:01;;;;;;;1.98;1.88;;;;;;;;;;4925000;28;58488;-79
2023/10/11 09:37:49;;;;;;;3.40;2.22;;;;;;;;;;4871986;28;58674;-80
2023/10/11 09:40:36;;;;;;;3.33;3.05;;;;;;;;;;4955350;28;58382;-81
2023/10/11 09:43:24;;;;;;;2.30;2.08;;;;;;;;;;4933789;28;58578;-80
2023/10/11 09:46:33;;;;;;;2.05;1.95;;;;;;;;;;4864312;28;58614;-79
2023/10/11 09:49:21;;;;;;;2.35;2.15;;;;;;;;;;4884661;28;58562;-80
2023/10/11 09:52:09;;;;;;;3.90;2.03;;;;;;;;;;4824691;28;58961;-78
2023/10/11 09:55:20;;;;;;;3.15;2.75;;;;;;;;;;4882309;28;58477;-78
2023/10/11 09:58:34;;;;;;;2.40;2.15;;;;;;;;;;4873313;28;58675;-79
2023/10/11 10:01:23;;;;;;;2.30;2.10;;;;;;;;;;4888400;28;58560;-78
2023/10/11 10:04:14;;;;;;;2.55;2.35;;;;;;;;;;4878775;28;58497;-78
2023/10/11 10:07:06;;;;;;;2.50;2.30;;;;;;;;;;4880318;28;58548;-78
2023/10/11 10:10:15;;;;;;;2.80;2.40;;;;;;;;;;4812918;29;58565;-78
2023/10/11 10:13:09;;;;;;;2.50;2.00;;;;;;;;;;4788105;28;58713;-80
2023/10/11 10:16:06;;;;;;;2.33;2.13;;;;;;;;;;4802427;28;58672;-78
2023/10/11 10:19:15;;;;;;;2.97;2.78;;;;;;;;;;4942957;28;58627;-79
2023/10/11 10:22:42;;;;;;;2.97;2.70;;;;;;;;;;4924184;28;58446;-77
2023/10/11 10:25:36;;;;;;;3.00;2.70;;;;;;;;;;4909608;28;58690;-80
2023/10/11 10:28:59;;;;;;;2.92;2.38;;;;;;;;;;4874221;28;58596;-77
2023/10/11 10:32:23;;;;;;;2.88;2.65;;;;;;;;;;4943410;28;58715;-78
2023/10/11 10:35:49;;;;;;;2.60;2.40;;;;;;;;;;4936530;28;58499;-79
2023/10/11 10:38:56;;;;;;;2.60;2.40;;;;;;;;;;4854059;29;58541;-78
2023/10/11 10:42:04;;;;;;;2.28;2.15;;;;;;;;;;4868691;28;63239;-78
2023/10/11 10:45:21;;;;;;;2.88;2.67;;;;;;;;;;4931224;28;62404;-78
2023/10/11 10:48:13;;;;;;;2.33;2.13;;;;;;;;;;4896822;28;58643;-78
2023/10/11 10:51:20;;;;;;;3.70;2.65;;;;;;;;;;4912757;28;62526;-78
2023/10/11 10:54:32;;;;;;;2.60;2.40;;;;;;;;;;4890479;28;58567;-80
2023/10/11 10:57:27;;;;;;;2.53;2.35;;;;;;;;;;4884461;28;59066;-79
2023/10/11 11:00:30;;;;;;;2.50;2.30;;;;;;;;;;4875123;28;62291;-79
2023/10/11 11:03:47;;;;;;;3.33;3.03;;;;;;;;;;4853144;28;58876;-80
2023/10/11 11:06:55;;;;;;;2.63;2.42;;;;;;;;;;4831061;29;58417;-80
2023/10/11 11:09:41;;;;;;;2.80;2.60;;;;;;;;;;4837291;29;58594;-80
2023/10/11 11:12:48;;;;;;;2.40;2.22;;;;;;;;;;4835090;29;59096;-79
2023/10/11 11:16:07;;;;;;;3.53;2.60;;;;;;;;;;4831414;29;58612;-80
2023/10/11 11:19:26;;;;;;;2.95;2.65;;;;;;;;;;4829518;29;58485;-80
2023/10/11 11:22:19;;;;;;;2.92;2.70;;;;;;;;;;4875017;28;58644;-80
2023/10/11 11:25:07;;;;;;;2.75;2.55;;;;;;;;;;4878065;28;58561;-79
2023/10/11 11:28:17;;;;;;;2.30;2.10;;;;;;;;;;4938282;28;58736;-79
2023/10/11 11:31:09;;;;;;;2.47;2.28;;;;;;;;;;4874951;28;59024;-80
2023/10/11 11:34:16;;;;;;;3.47;2.88;;;;;;;;;;4953366;28;58590;-80
2023/10/11 11:37:10;;;;;;;2.90;2.40;;;;;;;;;;4937868;28;58576;-79
2023/10/11 11:40:17;;;;;;;3.88;2.42;;;;;;;;;;4928169;28;58400;-80
2023/10/11 11:43:08;;;;;;;2.10;2.00;;;;;;;;;;4930157;28;59652;-79
2023/10/11 11:46:18;;;;;;;3.08;2.60;;;;;;;;;;4862614;28;64004;-80
2023/10/11 11:49:29;;;;;;;2.42;2.22;;;;;;;;;;4849274;28;58410;-79
2023/10/11 11:52:17;;;;;;;;;;;;;;;;;;4954457;28;58602;-80
2023/10/11 11:54:45;;;;;;;3.05;2.05;;;;;;;;;;4915420;28;59376;-80
2023/10/11 11:57:53;;;;;;;2.75;2.55;;;;;;;;;;4957720;28;58575;-80
2023/10/11 12:01:15;;;;;;;2.30;2.08;;;;;;;;;;4933435;28;58464;-80
2023/10/11 12:03:54;;;;;;;4.45;2.20;;;;;;;;;;4920075;28;62812;-78
2023/10/11 12:06:40;;;;;;;;;;;;;;;;;;4954912;28;58830;-79
2023/10/11 12:09:55;;;;;;;1.88;1.77;;;;;;;;;;4916524;28;58396;-79
2023/10/11 12:12:50;;;;;;;3.25;2.25;;;;;;;;;;4918937;28;58850;-80
2023/10/11 12:15:40;;;;;;;3.00;2.67;;;;;;;;;;4936453;28;58551;-80
2023/10/11 12:18:33;;;;;;;2.85;2.58;;;;;;;;;;4944144;28;58520;-80
2023/10/11 12:21:42;;;;;;;3.92;2.58;;;;;;;;;;4952484;28;58688;-81
2023/10/11 12:24:48;;;;;;;3.90;2.92;;;;;;;;;;4929205;28;58479;-80
2023/10/11 12:27:40;;;;;;;4.90;3.13;;;;;;;;;;4940502;28;59010;-80
2023/10/11 12:30:45;;;;;;;3.53;2.38;;;;;;;;;;4891774;28;58933;-80
2023/10/11 12:33:50;;;;;;;2.72;2.45;;;;;;;;;;4893264;28;58586;-80
2023/10/11 12:36:22;;;;;;;2.45;2.25;;;;;;;;;;4918791;28;58469;-79
2023/10/11 12:39:33;;;;;;;4.53;3.15;;;;;;;;;;4923518;28;58936;-80
2023/10/11 12:42:22;;;;;;;2.65;2.45;;;;;;;;;;4933349;28;63156;-80
2023/10/11 12:45:08;;;;;;;2.80;2.13;;;;;;;;;;4951426;28;63572;-79
2023/10/11 12:48:19;;;;;;;2.78;2.17;;;;;;;;;;4958940;28;58431;-79
2023/10/11 12:51:10;;;;;;;3.25;2.42;;;;;;;;;;4916243;28;58579;-79
2023/10/11 12:54:20;;;;;;;2.42;2.22;;;;;;;;;;4959397;28;58474;-79
2023/10/11 12:57:43;;;;;;;2.20;1.85;;;;;;;;;;4947309;28;58442;-80
2023/10/11 13:01:05;;;;;;;3.60;2.20;;;;;;;;;;4931348;28;58499;-79
2023/10/11 13:04:17;;;;;;;2.35;2.20;;;;;;;;;;4889574;28;58572;-80
2023/10/11 13:07:26;;;;;;;3.90;2.80;;;;;;;;;;4925250;28;58734;-80
2023/10/11 13:10:23;;;;;;;2.17;1.92;;;;;;;;;;4924600;28;58578;-80
2023/10/11 13:13:36;;;;;;;1.85;1.75;;;;;;;;;;4930193;28;58433;-79
2023/10/11 13:16:44;;;;;;;2.75;2.55;;;;;;;;;;4927428;28;58516;-80
2023/10/11 13:19:18;;;;;;;2.30;2.13;;;;;;;;;;4962005;28;58615;-78
2023/10/11 13:21:49;;;;;;;3.13;2.83;;;;;;;;;;4959459;28;58652;-77
2023/10/11 13:24:23;;;;;;;2.22;2.03;;;;;;;;;;4960138;28;58678;-74
2023/10/11 13:26:49;;;;;;;3.72;2.50;;;;;;;;;;4965107;28;58858;-80
2023/10/11 13:29:17;;;;;;;2.65;2.35;;;;;;;;;;4959563;28;58914;-78
2023/10/11 13:31:42;;;;;;;;;;;;;;;;;;4960562;28;58308;-78
2023/10/11 13:34:08;;;;;;;4.30;2.20;;;;;;;;;;4961151;28;58315;-77
2023/10/11 13:36:33;;;;;;;2.80;2.23;;;;;;;;;;4961069;28;58655;-78
2023/10/11 13:38:59;;;;;;;1.93;1.83;;;;;;;;;;4962660;28;59234;-75
2023/10/11 13:41:27;;;;;;;3.83;2.22;;;;;;;;;;4959450;28;58561;-76
2023/10/11 13:43:53;;;;;;;2.50;2.30;;;;;;;;;;4961120;28;58941;-78
2023/10/11 13:46:18;;;;;;;2.90;1.92;;;;;;;;;;4951566;28;58787;-76
2023/10/11 13:48:46;;;;;;;3.63;2.70;;;;;;;;;;4928567;28;58523;-76
2023/10/11 13:51:17;;;;;;;1.98;1.88;;;;;;;;;;4959187;28;59107;-77
2023/10/11 13:53:42;;;;;;;2.10;1.90;;;;;;;;;;4941538;28;58464;-76
2023/10/11 13:56:20;;;;;;;3.03;2.77;;;;;;;;;;4963415;28;58329;-77
2023/10/11 13:58:45;;;;;;;3.53;1.98;;;;;;;;;;4948782;28;59187;-77
2023/10/11 14:01:45;;;;;;;5.40;2.87;;;;;;;;;;4944500;28;58437;-79
2023/10/11 14:04:15;;;;;;;7.10;2.03;;;;;;;;;;4956741;28;58409;-79
2023/10/11 14:06:43;;;;;;;3.08;1.75;;;;;;;;;;4957589;28;58537;-79
2023/10/11 14:09:33;;;;;;;1.85;1.67;;;;;;;;;;4964773;28;58281;-79
2023/10/11 14:12:21;;;;;;;8.57;2.15;;;;;;;;;;4952720;28;62502;-79
2023/10/11 14:15:17;;;;;;;2.67;1.90;;;;;;;;;;4960606;28;58724;-79
2023/10/11 14:17:44;;;;;;;5.07;2.40;;;;;;;;;;4934615;28;59642;-76
2023/10/11 14:20:19;;;;;;;1.98;1.88;;;;;;;;;;4956357;28;58573;-77
2023/10/11 14:22:45;;;;;;;2.10;1.73;;;;;;;;;;4960307;28;58466;-77
2023/10/11 14:25:11;;;;;;;3.63;1.98;;;;;;;;;;4959731;28;60236;-77
2023/10/11 14:27:39;;;;;;;2.60;2.40;;;;;;;;;;4959890;28;60081;-76
2023/10/11 14:30:05;;;;;;;4.55;1.70;;;;;;;;;;4960229;28;57902;-76
2023/10/11 14:32:30;;;;;;;4.00;2.28;;;;;;;;;;4953972;28;59611;-76
2023/10/11 14:34:55;;;;;;;2.85;1.60;;;;;;;;;;4959295;28;58828;-77
2023/10/11 14:37:20;;;;;;;3.33;2.00;;;;;;;;;;4952675;28;59146;-75
2023/10/11 14:39:49;;;;;;;2.60;1.90;;;;;;;;;;4943118;28;59761;-75
2023/10/11 14:42:14;;;;;;;4.40;1.73;;;;;;;;;;4963998;28;58279;-79
2023/10/11 14:44:40;;;;;;;1.77;1.52;;;;;;;;;;4959934;28;58914;-79
2023/10/11 14:47:05;;;;;;;8.87;2.30;;;;;;;;;;4960610;28;58586;-79
2023/10/11 14:49:31;;;;;;;2.30;2.10;;;;;;;;;;4961832;28;58371;-79
2023/10/11 14:51:56;;;;;;;4.27;1.53;;;;;;;;;;4962005;28;58776;-79
2023/10/11 14:54:21;;;;;;;2.17;1.97;;;;;;;;;;4962956;28;58528;-79
2023/10/11 14:56:46;;;;;;;3.63;1.70;;;;;;;;;;4963181;28;58862;-79
2023/10/11 14:59:12;;;;;;;1.77;1.65;;;;;;;;;;4948543;28;58586;-79
2023/10/11 15:01:37;;;;;;;2.05;1.88;;;;;;;;;;4945789;28;58714;-78
2023/10/11 15:04:09;;;;;;;2.00;1.80;;;;;;;;;;4963657;28;58874;-79
2023/10/11 15:06:35;;;;;;;2.92;1.33;;;;;;;;;;4957558;28;58445;-78
2023/10/11 15:09:00;;;;;;;2.10;1.92;;;;;;;;;;4960962;28;58477;-79
2023/10/11 15:11:26;;;;;;;3.07;1.60;;;;;;;;;;4962258;28;58767;-79
2023/10/11 15:13:51;;;;;;;2.45;1.83;;;;;;;;;;4961885;28;58581;-79
2023/10/11 15:16:16;;;;;;;2.13;2.03;;;;;;;;;;4948246;28;58452;-79
2023/10/11 15:18:41;;;;;;;2.40;2.13;;;;;;;;;;4959496;28;59095;-79
2023/10/11 15:21:06;;;;;;;1.70;1.60;;;;;;;;;;4956290;28;58662;-79
2023/10/11 15:23:32;;;;;;;1.93;1.83;;;;;;;;;;4963192;28;58377;-79
2023/10/11 15:25:58;;;;;;;2.45;2.25;;;;;;;;;;4961409;28;58686;-79
2023/10/11 15:28:23;;;;;;;2.72;2.45;;;;;;;;;;4961055;28;58570;-79
2023/10/11 15:30:48;;;;;;;3.03;2.17;;;;;;;;;;4965119;28;58629;-78
2023/10/11 15:33:15;;;;;;;2.25;1.77;;;;;;;;;;4947343;28;59988;-79
2023/10/11 15:35:46;;;;;;;2.40;2.20;;;;;;;;;;4966654;28;58516;-78
2023/10/11 15:38:12;;;;;;;2.25;1.98;;;;;;;;;;4964196;28;58726;-79
2023/10/11 15:40:37;;;;;;;2.20;2.00;;;;;;;;;;4954119;28;58384;-78
2023/10/11 15:43:02;;;;;;;3.03;1.75;;;;;;;;;;4933068;28;58558;-78
2023/10/11 15:45:27;;;;;;;2.00;1.87;;;;;;;;;;4961870;28;58782;-78
2023/10/11 15:47:53;;;;;;;2.80;2.00;;;;;;;;;;4964695;28;58216;-79
2023/10/11 15:50:19;;;;;;;2.47;1.97;;;;;;;;;;4961203;28;60206;-79
2023/10/11 15:52:46;;;;;;;3.03;2.17;;;;;;;;;;4962361;28;59078;-78
2023/10/11 15:55:11;;;;;;;2.08;1.92;;;;;;;;;;4962892;28;58644;-79
2023/10/11 15:57:36;;;;;;;1.83;1.73;;;;;;;;;;4964280;28;58865;-79
2023/10/11 16:00:12;;;;;;;2.83;2.10;;;;;;;;;;4964285;28;58398;-79
2023/10/11 16:02:38;;;;;;;1.75;1.65;;;;;;;;;;4963117;28;59322;-79
2023/10/11 16:05:06;;;;;;;2.35;1.90;;;;;;;;;;4962612;28;59190;-79
2023/10/11 16:07:31;;;;;;;;;;;;;;;;;;4962568;28;58324;-79
2023/10/11 16:09:56;;;;;;;1.67;1.57;;;;;;;;;;4948071;28;59164;-79
2023/10/11 16:12:22;;;;;;;2.20;2.00;;;;;;;;;;4962313;28;58644;-79
2023/10/11 16:14:48;;;;;;;1.73;1.63;;;;;;;;;;4963826;28;58537;-77
2023/10/11 16:17:13;;;;;;;2.97;1.38;;;;;;;;;;4963310;28;58285;-77
2023/10/11 16:19:39;;;;;;;3.90;2.13;;;;;;;;;;4963661;28;58505;-79
2023/10/11 16:22:04;;;;;;;5.03;2.20;;;;;;;;;;4961933;28;58809;-78
2023/10/11 16:24:29;;;;;;;2.40;2.20;;;;;;;;;;4961559;28;58604;-78
2023/10/11 16:26:55;;;;;;;2.13;1.93;;;;;;;;;;4963311;28;58448;-79
2023/10/11 16:29:22;;;;;;;2.42;1.85;;;;;;;;;;4963522;28;58504;-79
2023/10/11 16:31:49;;;;;;;2.15;1.95;;;;;;;;;;4962187;28;58737;-78
2023/10/11 16:34:14;;;;;;;2.40;2.20;;;;;;;;;;4963629;28;58435;-77
2023/10/11 16:36:39;;;;;;;2.47;2.27;;;;;;;;;;4961695;28;58447;-78
2023/10/11 16:39:04;;;;;;;2.42;2.22;;;;;;;;;;4961960;28;58787;-79
2023/10/11 16:41:29;;;;;;;1.73;1.63;;;;;;;;;;4963138;28;58426;-79
2023/10/11 16:43:55;;;;;;;1.57;1.47;;;;;;;;;;4961014;28;58649;-79
2023/10/11 16:46:20;;;;;;;3.17;1.73;;;;;;;;;;4961491;28;58516;-79
2023/10/11 16:48:46;;;;;;;2.70;2.45;;;;;;;;;;4962344;28;59530;-79
2023/10/11 16:51:11;;;;;;;2.03;1.90;;;;;;;;;;4960572;28;58322;-78
2023/10/11 16:53:36;;;;;;;2.40;2.03;;;;;;;;;;4961803;28;58369;-79